Time;durP1;ratioP1;P1;durP2;ratioP2;P2;SDS_P1;SDS_P2;PMS_P1;PMS_P2;Temp;Humidity;BMP_temperature;BMP_pressure;BME280_temperature;BME280_humidity;BME280_pressure;Samples;Min_cycle;Max_cycle;Signal;HPM_P1;HPM_P2
2021/07/26 00:00:58;;;;;;;5.28;3.05;;;18.50;90.60;;;;;;5100508;28;20024;-78
2021/07/26 00:03:24;;;;;;;4.78;3.22;;;18.40;90.60;;;;;;5101790;28;20016;-78
2021/07/26 00:05:57;;;;;;;4.72;2.88;;;18.40;90.60;;;;;;5119436;28;20020;-79
2021/07/26 00:08:23;;;;;;;3.78;2.47;;;18.40;90.70;;;;;;5118905;28;20028;-80
2021/07/26 00:10:58;;;;;;;4.45;3.28;;;18.30;90.70;;;;;;5109416;28;20087;-80
2021/07/26 00:13:24;;;;;;;5.05;3.08;;;18.30;90.80;;;;;;5106668;28;20028;-79
2021/07/26 00:15:49;;;;;;;5.15;2.92;;;18.20;90.80;;;;;;5107627;28;20091;-78
2021/07/26 00:18:15;;;;;;;4.93;2.78;;;18.20;90.90;;;;;;5088726;28;20444;-78
2021/07/26 00:20:41;;;;;;;4.68;3.47;;;18.20;91.00;;;;;;5088814;28;20025;-79
2021/07/26 00:23:06;;;;;;;5.40;3.70;;;18.10;91.00;;;;;;5107859;28;20074;-80
2021/07/26 00:25:32;;;;;;;6.38;3.10;;;18.10;91.00;;;;;;5071733;28;20026;-79
2021/07/26 00:27:58;;;;;;;4.43;2.53;;;18.20;91.00;;;;;;5088264;28;20036;-78
2021/07/26 00:30:24;;;;;;;7.38;3.17;;;18.10;90.90;;;;;;5101949;28;20028;-78
2021/07/26 00:32:50;;;;;;;5.47;2.80;;;18.10;90.90;;;;;;5099741;28;20036;-78
2021/07/26 00:35:15;;;;;;;3.88;2.88;;;18.10;90.90;;;;;;5079607;28;20453;-80
2021/07/26 00:37:41;;;;;;;5.55;3.28;;;18.10;90.90;;;;;;5078961;28;20426;-79
2021/07/26 00:40:09;;;;;;;4.05;3.00;;;18.10;90.90;;;;;;5078528;28;20466;-80
2021/07/26 00:42:36;;;;;;;4.15;3.10;;;18.10;90.90;;;;;;5079358;28;20035;-80
2021/07/26 00:45:03;;;;;;;3.70;3.05;;;18.10;90.90;;;;;;5078505;28;20392;-79
2021/07/26 00:47:29;;;;;;;6.72;3.53;;;18.10;91.00;;;;;;5096398;28;20098;-77
2021/07/26 00:49:56;;;;;;;5.50;3.13;;;18.00;90.90;;;;;;5079283;28;20418;-78
2021/07/26 00:52:22;;;;;;;4.30;2.97;;;18.10;91.00;;;;;;5079593;28;20142;-78
2021/07/26 00:54:48;;;;;;;5.07;3.15;;;18.00;91.00;;;;;;5096067;28;20024;-78
2021/07/26 00:57:15;;;;;;;7.47;3.75;;;18.00;91.00;;;;;;5096499;28;20036;-84
2021/07/26 00:59:41;;;;;;;7.50;3.00;;;18.00;91.10;;;;;;5095244;28;20028;-78
2021/07/26 01:02:07;;;;;;;7.78;3.58;;;18.00;91.10;;;;;;5078042;28;20032;-78
2021/07/26 01:04:32;;;;;;;4.68;3.22;;;18.00;91.10;;;;;;5094889;28;20038;-78
2021/07/26 01:06:59;;;;;;;5.80;3.70;;;18.00;91.20;;;;;;5096945;28;20032;-78
2021/07/26 01:09:25;;;;;;;5.53;2.97;;;17.90;91.20;;;;;;5078520;28;20024;-78
2021/07/26 01:11:51;;;;;;;5.28;3.45;;;18.00;91.20;;;;;;5095256;28;20024;-78
2021/07/26 01:14:17;;;;;;;4.43;3.00;;;17.90;91.20;;;;;;5079631;28;20380;-78
2021/07/26 01:16:47;;;;;;;5.80;3.40;;;17.90;91.40;;;;;;5102993;28;20028;-78
2021/07/26 01:19:14;;;;;;;5.78;3.72;;;17.90;91.30;;;;;;5095653;28;20410;-79
2021/07/26 01:21:41;;;;;;;5.95;3.53;;;17.90;91.20;;;;;;5096569;28;20024;-78
2021/07/26 01:24:07;;;;;;;5.45;3.80;;;17.90;91.30;;;;;;5095188;28;20024;-78
2021/07/26 01:26:33;;;;;;;4.30;3.20;;;17.90;91.30;;;;;;5096178;28;20065;-78
2021/07/26 01:29:04;;;;;;;5.85;3.60;;;18.00;91.30;;;;;;5079260;28;20031;-76
2021/07/26 01:31:30;;;;;;;6.38;3.38;;;17.90;91.20;;;;;;5096924;28;20035;-77
2021/07/26 01:33:56;;;;;;;5.15;3.67;;;17.90;91.30;;;;;;5102801;28;20024;-76
2021/07/26 01:36:23;;;;;;;5.65;3.75;;;17.90;91.30;;;;;;5090323;28;20039;-78
2021/07/26 01:38:53;;;;;;;4.38;3.08;;;17.90;91.30;;;;;;5108495;28;20069;-77
2021/07/26 01:41:21;;;;;;;4.72;3.10;;;17.90;91.30;;;;;;5074606;28;20514;-77
2021/07/26 01:44:04;;;;;;;5.78;3.15;;;17.90;91.30;;;;;;5082166;28;20032;-79
2021/07/26 01:46:51;;;;;;;5.40;3.45;;;17.90;91.30;;;;;;5081155;28;20028;-79
2021/07/26 01:49:41;;;;;;;4.45;3.40;;;17.90;91.30;;;;;;5095475;28;20020;-80
2021/07/26 01:52:08;;;;;;;4.07;3.08;;;17.80;91.20;;;;;;5095919;28;20032;-79
2021/07/26 01:54:34;;;;;;;5.20;3.10;;;17.80;91.20;;;;;;5094418;28;20043;-78
2021/07/26 01:57:01;;;;;;;6.47;3.15;;;17.80;91.30;;;;;;5094646;28;20028;-78
2021/07/26 01:59:27;;;;;;;6.10;3.53;;;17.80;91.20;;;;;;5094405;28;20031;-79
2021/07/26 02:01:52;;;;;;;3.72;3.42;;;17.70;91.20;;;;;;5095097;28;20383;-79
2021/07/26 02:04:18;;;;;;;5.38;3.13;;;17.70;91.20;;;;;;5077372;28;20434;-79
2021/07/26 02:06:44;;;;;;;4.38;3.70;;;17.70;91.20;;;;;;5094219;28;20086;-79
2021/07/26 02:09:10;;;;;;;5.40;3.35;;;17.70;91.30;;;;;;5095581;28;20028;-79
2021/07/26 02:11:35;;;;;;;3.80;3.00;;;17.70;91.30;;;;;;5095382;28;20113;-79
2021/07/26 02:14:08;;;;;;;6.03;3.65;;;17.70;91.30;;;;;;5093302;28;20028;-79
2021/07/26 02:16:35;;;;;;;5.80;3.25;;;17.70;91.20;;;;;;5078824;28;20027;-79
2021/07/26 02:19:00;;;;;;;4.85;3.42;;;17.70;91.20;;;;;;5077025;28;20034;-79
2021/07/26 02:21:26;;;;;;;4.88;2.97;;;17.70;91.30;;;;;;5077642;28;20028;-79
2021/07/26 02:23:51;;;;;;;6.40;3.25;;;17.70;91.30;;;;;;5095099;28;20028;-80
2021/07/26 02:26:17;;;;;;;5.25;2.97;;;17.60;91.30;;;;;;5076869;28;20437;-79
2021/07/26 02:28:43;;;;;;;7.03;3.67;;;17.60;91.20;;;;;;5060140;28;20049;-79
2021/07/26 02:31:08;;;;;;;3.55;3.20;;;17.60;91.30;;;;;;5076985;28;20077;-79
2021/07/26 02:33:34;;;;;;;3.42;2.97;;;17.60;91.30;;;;;;5060070;28;20028;-78
2021/07/26 02:36:00;;;;;;;3.45;3.10;;;17.60;91.30;;;;;;5093366;28;20052;-79
2021/07/26 02:38:25;;;;;;;3.83;2.92;;;17.60;91.30;;;;;;5093202;28;20032;-80
2021/07/26 02:40:51;;;;;;;5.63;3.13;;;17.60;91.20;;;;;;5076508;28;20028;-79
2021/07/26 02:43:17;;;;;;;4.10;3.10;;;17.60;91.40;;;;;;5076165;28;20036;-79
2021/07/26 02:45:43;;;;;;;3.85;2.72;;;17.60;91.20;;;;;;5060352;28;20024;-79
2021/07/26 02:48:10;;;;;;;4.13;2.75;;;17.60;91.30;;;;;;5094643;28;20070;-79
2021/07/26 02:50:36;;;;;;;5.22;2.72;;;17.60;91.20;;;;;;5094180;28;20105;-79
2021/07/26 02:53:02;;;;;;;3.03;2.63;;;17.60;91.20;;;;;;5093311;28;20472;-79
2021/07/26 02:55:29;;;;;;;3.95;2.90;;;17.60;91.10;;;;;;5076375;28;20128;-81
2021/07/26 02:57:56;;;;;;;6.68;2.58;;;17.60;91.10;;;;;;5093329;28;20032;-78
2021/07/26 03:00:22;;;;;;;2.80;2.22;;;17.60;91.00;;;;;;5092949;28;20134;-77
2021/07/26 03:02:48;;;;;;;4.80;2.85;;;17.60;91.00;;;;;;5076958;28;20060;-79
2021/07/26 03:05:14;;;;;;;3.05;2.72;;;17.60;91.00;;;;;;5093866;28;20077;-78
2021/07/26 03:07:39;;;;;;;6.25;2.42;;;17.60;90.90;;;;;;5092738;28;20032;-79
2021/07/26 03:10:05;;;;;;;4.82;2.85;;;17.60;90.90;;;;;;5059545;28;20032;-78
2021/07/26 03:12:31;;;;;;;4.80;2.95;;;17.60;91.00;;;;;;5075929;28;20063;-79
2021/07/26 03:14:57;;;;;;;3.08;2.70;;;17.50;91.00;;;;;;5092723;28;20020;-76
2021/07/26 03:17:25;;;;;;;4.38;2.70;;;17.50;91.10;;;;;;5075701;28;20031;-79
2021/07/26 03:19:54;;;;;;;4.03;2.80;;;17.40;91.20;;;;;;5076845;28;20028;-79
2021/07/26 03:22:54;;;;;;;3.63;2.53;;;17.40;91.20;;;;;;5094047;28;20032;-79
2021/07/26 03:25:20;;;;;;;4.53;2.85;;;17.40;91.30;;;;;;5092419;28;20036;-79
2021/07/26 03:27:48;;;;;;;4.35;2.65;;;17.30;91.30;;;;;;5093236;28;20410;-79
2021/07/26 03:30:15;;;;;;;4.75;3.03;;;17.30;91.30;;;;;;5094028;28;20036;-79
2021/07/26 03:32:40;;;;;;;3.33;2.95;;;17.30;91.30;;;;;;5092487;28;20016;-78
2021/07/26 03:35:06;;;;;;;3.78;2.83;;;17.30;91.40;;;;;;5075933;28;20062;-79
2021/07/26 03:37:32;;;;;;;3.88;3.00;;;17.30;91.50;;;;;;5092455;28;20032;-82
2021/07/26 03:39:58;;;;;;;5.40;3.22;;;17.20;91.50;;;;;;5092570;28;20024;-78
2021/07/26 03:42:23;;;;;;;5.30;3.35;;;17.20;91.60;;;;;;5076416;28;20032;-78
2021/07/26 03:44:49;;;;;;;3.78;3.20;;;17.20;91.60;;;;;;5093253;28;20329;-78
2021/07/26 03:47:15;;;;;;;6.55;3.58;;;17.20;91.70;;;;;;5093484;28;20029;-79
2021/07/26 03:49:40;;;;;;;7.00;3.78;;;17.20;91.70;;;;;;5092995;28;20032;-79
2021/07/26 03:52:06;;;;;;;4.63;3.20;;;17.20;91.70;;;;;;5076718;28;20097;-79
2021/07/26 03:54:32;;;;;;;4.30;3.80;;;17.20;91.70;;;;;;5094214;28;20055;-85
2021/07/26 03:56:58;;;;;;;5.53;3.42;;;17.10;91.70;;;;;;5075488;28;20464;-79
2021/07/26 03:59:26;;;;;;;4.47;3.60;;;17.20;91.70;;;;;;5091487;28;20104;-79
2021/07/26 04:01:55;;;;;;;5.55;3.40;;;17.30;91.60;;;;;;5062195;28;20440;-79
2021/07/26 04:04:25;;;;;;;3.50;3.15;;;17.40;91.60;;;;;;5093293;28;20060;-78
2021/07/26 04:06:57;;;;;;;6.13;3.38;;;17.50;91.50;;;;;;5092510;28;20039;-78
2021/07/26 04:09:26;;;;;;;3.95;3.13;;;17.50;91.40;;;;;;5076735;28;20115;-78
2021/07/26 04:11:59;;;;;;;5.88;3.33;;;17.50;91.40;;;;;;5077011;28;20027;-79
2021/07/26 04:14:28;;;;;;;4.40;3.15;;;17.50;91.30;;;;;;5095269;28;20028;-78
2021/07/26 04:16:54;;;;;;;4.82;3.53;;;17.50;91.30;;;;;;5075615;28;20440;-79
2021/07/26 04:19:20;;;;;;;5.30;3.83;;;17.60;91.20;;;;;;5091939;28;20024;-78
2021/07/26 04:21:46;;;;;;;5.18;2.90;;;17.60;91.10;;;;;;5075308;28;20039;-80
2021/07/26 04:24:11;;;;;;;3.25;2.80;;;17.70;91.10;;;;;;5091661;28;20039;-79
2021/07/26 04:26:37;;;;;;;5.85;3.20;;;17.70;91.00;;;;;;5093105;28;20028;-79
2021/07/26 04:29:03;;;;;;;3.72;3.25;;;17.80;90.90;;;;;;5074992;28;20475;-78
2021/07/26 04:31:28;;;;;;;5.70;2.88;;;17.90;90.80;;;;;;5093645;28;20031;-77
2021/07/26 04:33:54;;;;;;;5.25;3.00;;;18.00;90.70;;;;;;5093287;28;20051;-79
2021/07/26 04:36:20;;;;;;;3.75;2.80;;;18.10;90.50;;;;;;5058353;28;20440;-79
2021/07/26 04:38:45;;;;;;;4.22;2.88;;;18.10;90.40;;;;;;5095353;28;20067;-78
2021/07/26 04:41:12;;;;;;;4.05;2.83;;;18.10;90.30;;;;;;5078252;28;20043;-79
2021/07/26 04:43:38;;;;;;;4.20;2.60;;;18.20;90.20;;;;;;5096821;28;20024;-81
2021/07/26 04:46:04;;;;;;;6.32;3.03;;;18.30;90.10;;;;;;5095608;28;20484;-78
2021/07/26 04:48:31;;;;;;;3.45;2.80;;;18.60;89.80;;;;;;5095350;28;20050;-78
2021/07/26 04:50:56;;;;;;;6.07;3.30;;;18.70;89.20;;;;;;5096850;28;20085;-77
2021/07/26 04:53:22;;;;;;;4.00;3.00;;;18.80;88.70;;;;;;5096671;28;20020;-77
2021/07/26 04:55:48;;;;;;;4.38;3.22;;;18.80;88.40;;;;;;5094936;28;20020;-77
2021/07/26 04:58:13;;;;;;;6.22;3.05;;;18.80;88.30;;;;;;5061683;28;20032;-79
2021/07/26 05:00:39;;;;;;;6.82;3.35;;;19.00;88.00;;;;;;5095199;28;20430;-80
2021/07/26 05:03:08;;;;;;;4.63;3.13;;;19.40;86.90;;;;;;5078377;28;20123;-79
2021/07/26 05:05:36;;;;;;;3.58;3.05;;;19.70;85.40;;;;;;5095006;28;20060;-77
2021/07/26 05:08:01;;;;;;;5.22;2.75;;;19.80;84.50;;;;;;5096102;28;20074;-78
2021/07/26 05:10:27;;;;;;;5.35;3.00;;;19.80;84.50;;;;;;5095197;28;20059;-79
2021/07/26 05:12:53;;;;;;;3.95;2.65;;;19.80;84.10;;;;;;5078099;28;20478;-78
2021/07/26 05:15:18;;;;;;;6.03;2.92;;;19.70;84.10;;;;;;5078272;28;20071;-78
2021/07/26 05:17:44;;;;;;;4.03;2.90;;;19.50;84.50;;;;;;5095014;28;20111;-77
2021/07/26 05:20:10;;;;;;;4.10;3.08;;;19.50;84.70;;;;;;5094912;28;20036;-77
2021/07/26 05:22:39;;;;;;;4.22;2.92;;;19.50;84.80;;;;;;5078704;28;20028;-78
2021/07/26 05:25:06;;;;;;;7.55;3.25;;;19.50;84.80;;;;;;5096463;28;20059;-79
2021/07/26 05:27:32;;;;;;;6.13;2.90;;;19.60;85.00;;;;;;5077765;28;20028;-76
2021/07/26 05:29:58;;;;;;;4.00;2.67;;;19.80;84.70;;;;;;5094712;28;20035;-78
2021/07/26 05:32:23;;;;;;;3.70;3.10;;;20.10;83.90;;;;;;5094993;28;20024;-78
2021/07/26 05:34:49;;;;;;;4.55;3.10;;;20.90;82.70;;;;;;5060926;28;20048;-78
2021/07/26 05:37:18;;;;;;;6.90;2.88;;;22.50;77.30;;;;;;5094658;28;20035;-78
2021/07/26 05:39:44;;;;;;;7.35;2.38;;;23.90;72.80;;;;;;5094523;28;20384;-81
2021/07/26 05:42:12;;;;;;;7.13;3.25;;;24.40;70.40;;;;;;5094276;28;20038;-79
2021/07/26 05:44:39;;;;;;;5.72;4.30;;;24.10;70.00;;;;;;5095322;28;20464;-79
2021/07/26 05:47:06;;;;;;;7.05;4.95;;;23.90;70.90;;;;;;5078268;28;20418;-79
2021/07/26 05:49:32;;;;;;;5.32;4.75;;;23.40;71.80;;;;;;5093911;28;20016;-79
2021/07/26 05:51:58;;;;;;;7.45;3.92;;;23.00;73.10;;;;;;5061465;28;20097;-79
2021/07/26 05:54:23;;;;;;;4.25;3.58;;;22.80;73.90;;;;;;5077377;28;20111;-84
2021/07/26 05:56:50;;;;;;;6.45;4.13;;;22.70;74.00;;;;;;5076558;28;20427;-80
2021/07/26 05:59:16;;;;;;;3.75;3.15;;;22.90;73.90;;;;;;5077189;28;20036;-78
2021/07/26 06:01:48;;;;;;;4.90;3.40;;;23.80;72.20;;;;;;5095604;28;20068;-79
2021/07/26 06:04:17;;;;;;;3.33;2.40;;;24.10;70.50;;;;;;5093838;28;20051;-79
2021/07/26 06:06:44;;;;;;;3.40;2.85;;;23.80;70.80;;;;;;5093792;28;20476;-80
2021/07/26 06:09:11;;;;;;;5.22;3.20;;;23.40;71.60;;;;;;5093364;28;20037;-79
2021/07/26 06:11:38;;;;;;;3.63;2.53;;;23.40;72.30;;;;;;5093569;28;20024;-78
2021/07/26 06:14:04;;;;;;;4.18;3.67;;;23.40;71.70;;;;;;5095286;28;20161;-79
2021/07/26 06:16:30;;;;;;;3.95;3.50;;;23.40;71.60;;;;;;5095169;28;20127;-79
2021/07/26 06:18:58;;;;;;;6.32;4.20;;;23.30;71.90;;;;;;5094831;28;20027;-78
2021/07/26 06:21:23;;;;;;;5.47;3.88;;;23.10;72.00;;;;;;5095442;28;20024;-79
2021/07/26 06:23:49;;;;;;;4.80;4.30;;;23.40;72.10;;;;;;5094660;28;20028;-85
2021/07/26 06:26:15;;;;;;;5.35;4.25;;;23.60;71.40;;;;;;5093480;28;20185;-80
2021/07/26 06:28:40;;;;;;;4.68;3.78;;;23.80;70.80;;;;;;5093704;28;20028;-79
2021/07/26 06:31:07;;;;;;;6.25;5.65;;;24.00;70.40;;;;;;5076908;28;20028;-81
2021/07/26 06:33:33;;;;;;;4.75;4.20;;;24.30;69.80;;;;;;5094669;28;20028;-83
2021/07/26 06:36:04;;;;;;;6.68;5.47;;;25.30;68.20;;;;;;5060118;28;20373;-80
2021/07/26 06:38:30;;;;;;;5.03;4.53;;;26.20;66.30;;;;;;5093689;28;20058;-80
2021/07/26 06:40:56;;;;;;;4.10;3.58;;;27.10;64.40;;;;;;5076872;28;20048;-80
2021/07/26 06:43:22;;;;;;;4.43;3.08;;;28.00;61.80;;;;;;5094997;28;20035;-79
2021/07/26 06:45:48;;;;;;;5.15;2.50;;;28.40;59.70;;;;;;5093485;28;20028;-79
2021/07/26 06:48:13;;;;;;;3.47;1.98;;;28.60;58.70;;;;;;5093982;28;20069;-79
2021/07/26 06:50:40;;;;;;;3.00;2.10;;;29.00;57.20;;;;;;5093330;28;20036;-79
2021/07/26 06:53:07;;;;;;;4.80;2.35;;;29.20;56.30;;;;;;5093350;28;20038;-80
2021/07/26 06:55:36;;;;;;;3.50;2.28;;;29.30;55.90;;;;;;5093021;28;20028;-83
2021/07/26 06:58:03;;;;;;;4.07;2.00;;;29.50;54.20;;;;;;5094258;28;20476;-79
2021/07/26 07:00:29;;;;;;;2.55;1.75;;;29.50;54.40;;;;;;5092445;28;20046;-80
2021/07/26 07:02:54;;;;;;;3.33;1.48;;;29.90;54.80;;;;;;5076055;28;20032;-80
2021/07/26 07:05:20;;;;;;;3.75;1.77;;;30.00;53.70;;;;;;5075871;28;20419;-79
2021/07/26 07:07:46;;;;;;;4.03;1.42;;;29.80;51.80;;;;;;5075484;28;20115;-77
2021/07/26 07:10:12;;;;;;;3.25;1.65;;;29.20;54.60;;;;;;5092164;28;20043;-78
2021/07/26 07:12:37;;;;;;;5.20;1.40;;;29.00;53.90;;;;;;5092190;28;20468;-79
2021/07/26 07:15:03;;;;;;;4.30;1.15;;;29.00;55.50;;;;;;5091998;28;20036;-77
2021/07/26 07:17:29;;;;;;;2.38;1.00;;;29.20;54.00;;;;;;5092334;28;20024;-77
2021/07/26 07:19:55;;;;;;;3.92;1.05;;;29.00;54.10;;;;;;5058860;28;20032;-81
2021/07/26 07:22:20;;;;;;;2.40;1.30;;;28.80;54.70;;;;;;5075840;28;20032;-76
2021/07/26 07:24:47;;;;;;;3.40;1.00;;;28.20;55.70;;;;;;5092537;28;20039;-77
2021/07/26 07:27:12;;;;;;;2.67;1.27;;;27.80;57.20;;;;;;5092712;28;20111;-77
2021/07/26 07:29:38;;;;;;;1.77;1.33;;;27.60;57.80;;;;;;5092258;28;20058;-84
2021/07/26 07:32:04;;;;;;;2.88;1.50;;;27.40;58.20;;;;;;5075319;28;20128;-76
2021/07/26 07:34:31;;;;;;;2.65;2.10;;;27.10;58.40;;;;;;5092414;28;20048;-76
2021/07/26 07:36:58;;;;;;;4.82;2.47;;;26.50;59.90;;;;;;5093603;28;20456;-81
2021/07/26 07:39:29;;;;;;;5.43;2.78;;;26.20;60.70;;;;;;5093461;28;20024;-76
2021/07/26 07:41:54;;;;;;;3.13;2.20;;;26.00;61.10;;;;;;5094693;28;20026;-76
2021/07/26 07:44:20;;;;;;;5.70;2.17;;;26.10;61.00;;;;;;5077017;28;20032;-76
2021/07/26 07:46:45;;;;;;;3.13;1.98;;;26.20;61.40;;;;;;5068120;28;20052;-76
2021/07/26 07:49:11;;;;;;;6.22;2.33;;;26.10;61.00;;;;;;5100994;28;20028;-76
2021/07/26 07:51:37;;;;;;;4.03;2.65;;;26.10;61.10;;;;;;5102347;28;20039;-75
2021/07/26 07:54:02;;;;;;;3.35;2.15;;;26.00;60.90;;;;;;5101616;28;20025;-76
2021/07/26 07:56:28;;;;;;;2.53;1.88;;;26.00;61.20;;;;;;5076906;28;20029;-76
2021/07/26 07:58:56;;;;;;;3.45;2.10;;;26.10;61.70;;;;;;5092934;28;20460;-76
2021/07/26 08:01:31;;;;;;;3.08;1.73;;;26.30;61.10;;;;;;5093339;28;20020;-76
2021/07/26 08:03:57;;;;;;;2.25;1.92;;;26.20;60.60;;;;;;5092931;28;20032;-76
2021/07/26 08:06:22;;;;;;;3.10;2.22;;;25.80;61.10;;;;;;5075426;28;20173;-76
2021/07/26 08:08:48;;;;;;;1.85;1.30;;;25.80;60.80;;;;;;5093747;28;20486;-77
2021/07/26 08:11:14;;;;;;;2.00;1.42;;;25.60;61.90;;;;;;5076163;28;20033;-76
2021/07/26 08:13:39;;;;;;;5.72;1.50;;;26.10;60.60;;;;;;5096107;28;20029;-77
2021/07/26 08:16:06;;;;;;;1.42;1.20;;;26.50;60.10;;;;;;5096085;28;20034;-78
2021/07/26 08:18:32;;;;;;;1.80;1.25;;;27.20;58.40;;;;;;5096412;28;20016;-78
2021/07/26 08:20:59;;;;;;;2.75;1.23;;;27.90;57.50;;;;;;5097509;28;20028;-77
2021/07/26 08:23:24;;;;;;;1.92;1.30;;;28.40;56.50;;;;;;5095987;28;20061;-77
2021/07/26 08:25:50;;;;;;;2.38;1.48;;;28.30;56.40;;;;;;5097212;28;20024;-77
2021/07/26 08:28:16;;;;;;;2.22;1.20;;;27.90;54.70;;;;;;5095966;28;20506;-77
2021/07/26 08:30:43;;;;;;;2.40;1.33;;;27.20;57.20;;;;;;5079053;28;20024;-78
2021/07/26 08:33:09;;;;;;;2.45;1.02;;;27.00;56.30;;;;;;5079149;28;20077;-80
2021/07/26 08:35:35;;;;;;;3.65;1.25;;;27.00;57.20;;;;;;5078575;28;20060;-78
2021/07/26 08:38:01;;;;;;;2.75;1.15;;;27.20;57.30;;;;;;5097211;28;20032;-78
2021/07/26 08:40:29;;;;;;;3.30;1.60;;;27.00;57.50;;;;;;5096375;28;20035;-78
2021/07/26 08:42:57;;;;;;;2.38;1.17;;;26.80;58.20;;;;;;5096961;28;20107;-78
2021/07/26 08:45:22;;;;;;;2.55;0.93;;;26.60;59.20;;;;;;5095643;28;20028;-80
2021/07/26 08:47:49;;;;;;;1.50;0.70;;;26.60;59.30;;;;;;5062095;28;20043;-78
2021/07/26 08:50:17;;;;;;;3.33;0.80;;;26.60;59.10;;;;;;5095710;28;20020;-77
2021/07/26 08:52:48;;;;;;;2.28;1.13;;;26.40;58.20;;;;;;5095745;28;20069;-77
2021/07/26 08:55:19;;;;;;;1.63;0.70;;;26.10;58.90;;;;;;5078652;28;20059;-78
2021/07/26 08:57:46;;;;;;;2.00;0.70;;;25.60;60.30;;;;;;5095556;28;20013;-77
2021/07/26 09:00:15;;;;;;;3.10;0.70;;;25.50;60.60;;;;;;5095227;28;20043;-79
2021/07/26 09:02:41;;;;;;;3.30;0.70;;;25.60;61.40;;;;;;5096673;28;20106;-77
2021/07/26 09:05:08;;;;;;;1.20;0.70;;;25.90;61.60;;;;;;5096653;28;20059;-83
2021/07/26 09:07:39;;;;;;;2.03;0.80;;;25.80;60.80;;;;;;5095315;28;20074;-78
2021/07/26 09:10:14;;;;;;;1.77;0.70;;;25.90;60.30;;;;;;5096289;28;20020;-77
2021/07/26 09:12:41;;;;;;;1.63;0.90;;;26.10;60.50;;;;;;5095316;28;20028;-75
2021/07/26 09:15:22;;;;;;;2.42;0.52;;;26.30;58.40;;;;;;5078019;28;20063;-84
2021/07/26 09:17:48;;;;;;;3.38;0.75;;;26.30;59.50;;;;;;5096314;28;20036;-76
2021/07/26 09:20:16;;;;;;;1.42;0.63;;;26.50;59.20;;;;;;5094903;28;20113;-77
2021/07/26 09:22:43;;;;;;;1.92;0.60;;;26.70;59.60;;;;;;5095167;28;20107;-76
2021/07/26 09:25:19;;;;;;;2.67;0.85;;;27.00;59.30;;;;;;5094608;28;20028;-82
2021/07/26 09:28:01;;;;;;;1.75;0.70;;;26.90;58.20;;;;;;5095992;28;20020;-76
2021/07/26 09:30:38;;;;;;;1.50;0.68;;;26.60;58.20;;;;;;5094634;28;20020;-77
2021/07/26 09:33:21;;;;;;;1.30;0.60;;;26.60;58.90;;;;;;5095931;28;20032;-77
2021/07/26 09:36:08;;;;;;;3.50;0.80;;;26.60;59.20;;;;;;5094223;28;20048;-76
2021/07/26 09:38:34;;;;;;;1.00;0.60;;;26.90;58.50;;;;;;5096290;28;20047;-78
2021/07/26 09:41:01;;;;;;;2.70;0.80;;;27.20;57.80;;;;;;5095829;28;20056;-77
2021/07/26 09:43:27;;;;;;;1.58;0.65;;;27.70;56.90;;;;;;5094378;28;20478;-77
2021/07/26 09:45:55;;;;;;;1.88;0.70;;;28.40;56.10;;;;;;5096586;28;20107;-77
2021/07/26 09:48:29;;;;;;;4.18;1.08;;;29.10;53.60;;;;;;5094296;28;20077;-79
2021/07/26 09:50:59;;;;;;;3.28;0.68;;;29.30;54.00;;;;;;5094515;28;20115;-76
2021/07/26 09:53:28;;;;;;;1.10;0.65;;;29.50;53.00;;;;;;5095130;28;20099;-76
2021/07/26 09:55:55;;;;;;;1.77;0.65;;;29.40;52.90;;;;;;5096062;28;20107;-75
2021/07/26 09:58:42;;;;;;;1.58;0.60;;;29.20;52.90;;;;;;5094251;28;20024;-76
2021/07/26 10:01:09;;;;;;;3.40;0.70;;;28.90;53.50;;;;;;5093462;28;20377;-77
2021/07/26 10:03:39;;;;;;;1.70;0.60;;;28.80;53.00;;;;;;5095332;28;20073;-76
2021/07/26 10:06:06;;;;;;;0.88;0.60;;;28.80;53.60;;;;;;5095119;28;20455;-75
2021/07/26 10:08:31;;;;;;;2.70;0.70;;;28.90;53.20;;;;;;5093838;28;20021;-77
2021/07/26 10:10:58;;;;;;;2.55;0.60;;;28.90;52.60;;;;;;5093945;28;20035;-76
2021/07/26 10:13:24;;;;;;;1.63;0.70;;;29.00;52.10;;;;;;5095166;28;20117;-76
2021/07/26 10:15:50;;;;;;;1.15;0.60;;;29.10;52.30;;;;;;5095122;28;20103;-76
2021/07/26 10:18:16;;;;;;;2.05;0.70;;;29.20;52.00;;;;;;5094940;28;20024;-79
2021/07/26 10:20:48;;;;;;;3.00;0.73;;;28.90;50.90;;;;;;5093388;28;20380;-76
2021/07/26 10:23:21;;;;;;;1.40;0.60;;;28.10;52.60;;;;;;5095570;28;20035;-80
2021/07/26 10:25:55;;;;;;;1.88;0.70;;;28.00;53.80;;;;;;5093549;28;20036;-80
2021/07/26 10:28:31;;;;;;;1.50;0.70;;;28.40;53.00;;;;;;5094202;28;20437;-77
2021/07/26 10:30:57;;;;;;;1.55;0.60;;;28.20;52.20;;;;;;5094601;28;20077;-77
2021/07/26 10:33:23;;;;;;;0.90;0.50;;;28.20;53.80;;;;;;5076978;28;20020;-77
2021/07/26 10:35:55;;;;;;;1.60;0.70;;;28.30;52.80;;;;;;5092351;28;20557;-76
2021/07/26 10:38:50;;;;;;;2.08;0.60;;;28.20;51.90;;;;;;5095109;28;20028;-78
2021/07/26 10:41:44;;;;;;;1.75;0.70;;;28.20;52.00;;;;;;5076489;28;20487;-76
2021/07/26 10:44:16;;;;;;;1.77;0.60;;;28.50;51.80;;;;;;5094125;28;20110;-77
2021/07/26 10:46:51;;;;;;;1.40;0.70;;;28.50;52.80;;;;;;5100134;28;20035;-74
2021/07/26 10:49:16;;;;;;;3.65;0.70;;;28.90;52.40;;;;;;5104289;28;20039;-76
2021/07/26 10:51:45;;;;;;;0.90;0.52;;;29.00;50.70;;;;;;5102714;28;20476;-77
2021/07/26 10:54:33;;;;;;;1.08;0.50;;;28.70;51.60;;;;;;5103493;28;20020;-75
2021/07/26 10:57:06;;;;;;;1.27;0.50;;;28.90;51.70;;;;;;5104973;28;20020;-76
2021/07/26 11:00:09;;;;;;;1.15;0.50;;;28.90;51.90;;;;;;5103963;28;20028;-75
2021/07/26 11:02:37;;;;;;;1.15;0.60;;;28.90;51.40;;;;;;5099718;28;20035;-78
2021/07/26 11:05:24;;;;;;;1.55;0.50;;;28.70;52.00;;;;;;5095250;28;20107;-76
2021/07/26 11:08:12;;;;;;;0.85;0.50;;;28.70;51.80;;;;;;5094390;28;20055;-75
2021/07/26 11:10:57;;;;;;;0.75;0.50;;;28.60;52.20;;;;;;5093688;28;20078;-75
2021/07/26 11:13:43;;;;;;;1.95;0.57;;;28.50;52.20;;;;;;5092643;28;20072;-80
2021/07/26 11:16:09;;;;;;;2.08;0.60;;;28.30;52.70;;;;;;5092367;28;20081;-76
2021/07/26 11:18:39;;;;;;;1.10;0.60;;;28.00;53.30;;;;;;5059352;28;20020;-77
2021/07/26 11:21:16;;;;;;;2.78;0.77;;;28.10;53.70;;;;;;5093476;28;20478;-77
2021/07/26 11:23:50;;;;;;;2.40;0.90;;;28.60;52.40;;;;;;5092275;28;20024;-77
2021/07/26 11:29:42;;;;;;;;;;;28.20;52.40;;;;;;5020795;28;20037;-78
2021/07/26 11:32:08;;;;;;;2.03;0.60;;;28.60;53.30;;;;;;5094190;28;19904;-77
2021/07/26 11:34:34;;;;;;;5.18;1.00;;;28.60;52.30;;;;;;5094314;28;20043;-76
2021/07/26 11:37:10;;;;;;;4.28;0.73;;;28.70;50.90;;;;;;5092295;28;20127;-77
2021/07/26 11:39:52;;;;;;;1.67;0.80;;;28.50;51.80;;;;;;5092266;28;20024;-76
2021/07/26 11:42:24;;;;;;;;;;;28.40;52.30;;;;;;5077137;28;20047;-76
2021/07/26 11:44:51;;;;;;;2.75;0.70;;;28.40;52.10;;;;;;5093727;28;19904;-75
2021/07/26 11:47:29;;;;;;;1.63;0.80;;;28.40;52.30;;;;;;5097540;28;20020;-76
2021/07/26 11:49:55;;;;;;;1.88;0.60;;;28.80;52.70;;;;;;5097101;28;20020;-77
2021/07/26 11:52:21;;;;;;;1.52;0.70;;;29.50;51.40;;;;;;5096875;28;20032;-75
2021/07/26 11:54:48;;;;;;;3.28;0.70;;;30.10;50.70;;;;;;5079722;28;20035;-75
2021/07/26 11:57:14;;;;;;;1.83;0.80;;;30.50;49.30;;;;;;5098203;28;20032;-77
2021/07/26 11:59:56;;;;;;;2.45;0.95;;;30.70;48.70;;;;;;5096431;28;20032;-74
2021/07/26 12:02:36;;;;;;;1.70;0.68;;;30.60;47.10;;;;;;5098043;28;20024;-76
2021/07/26 12:05:12;;;;;;;1.53;0.80;;;30.10;48.60;;;;;;5097918;28;20070;-75
2021/07/26 12:07:44;;;;;;;2.45;0.70;;;29.90;49.40;;;;;;5096277;28;20444;-77
2021/07/26 12:10:12;;;;;;;1.95;0.60;;;29.50;48.90;;;;;;5097905;28;20028;-75
2021/07/26 12:12:49;;;;;;;1.00;0.60;;;29.20;50.90;;;;;;5079324;28;20085;-76
2021/07/26 12:15:31;;;;;;;4.75;0.73;;;29.40;50.70;;;;;;5097540;28;20020;-74
2021/07/26 12:18:04;;;;;;;2.53;0.70;;;29.70;50.10;;;;;;5078888;28;20036;-75
2021/07/26 12:20:30;;;;;;;1.10;0.60;;;29.60;49.00;;;;;;5096354;28;20036;-81
2021/07/26 12:22:55;;;;;;;2.10;0.80;;;29.70;49.40;;;;;;5096145;28;20021;-76
2021/07/26 12:25:23;;;;;;;1.00;0.70;;;29.80;47.90;;;;;;5095990;28;20517;-76
2021/07/26 12:27:56;;;;;;;1.25;0.70;;;29.60;48.50;;;;;;5097405;28;20020;-76
2021/07/26 12:30:22;;;;;;;2.13;0.80;;;29.50;48.80;;;;;;5097684;28;20059;-75
2021/07/26 12:32:49;;;;;;;1.67;0.70;;;29.70;47.50;;;;;;5097042;28;20043;-75
2021/07/26 12:35:22;;;;;;;1.80;0.70;;;29.80;47.40;;;;;;5095822;28;20115;-76
2021/07/26 12:38:05;;;;;;;1.40;0.70;;;29.60;46.70;;;;;;5094761;28;20131;-74
2021/07/26 12:40:35;;;;;;;2.08;0.70;;;29.40;47.40;;;;;;5096429;28;20047;-76
2021/07/26 12:43:10;;;;;;;1.98;0.80;;;29.20;48.30;;;;;;5093513;28;20516;-77
2021/07/26 12:45:41;;;;;;;1.10;0.60;;;29.40;48.90;;;;;;5097982;28;20036;-76
2021/07/26 12:48:15;;;;;;;3.30;0.90;;;29.90;48.20;;;;;;5097660;28;20023;-76
2021/07/26 12:50:43;;;;;;;1.73;0.70;;;30.10;46.60;;;;;;5096146;28;20464;-76
2021/07/26 12:53:09;;;;;;;1.92;0.70;;;29.90;46.80;;;;;;5096882;28;20020;-76
2021/07/26 12:55:35;;;;;;;1.23;0.80;;;29.60;47.40;;;;;;5097054;28;20030;-76
2021/07/26 12:58:01;;;;;;;2.00;0.70;;;29.20;48.70;;;;;;5095981;28;20049;-76